Time;durP1;ratioP1;P1;durP2;ratioP2;P2;SDS_P1;SDS_P2;PMS_P1;PMS_P2;Temp;Humidity;BMP_temperature;BMP_pressure;BME280_temperature;BME280_humidity;BME280_pressure;Samples;Min_cycle;Max_cycle;Signal;HPM_P1;HPM_P2
2022/01/29 00:00:11;;;;;;;;;;;;;;;;;;7389418;19;2244;-44
2022/01/29 00:02:39;;;;;;;;;;;;;;;;;;7390378;19;2233;-44
2022/01/29 00:05:06;;;;;;;;;;;;;;;;;;7390196;19;2202;-45
2022/01/29 00:07:33;;;;;;;;;;;;;;;;;;7389686;19;1921;-44
2022/01/29 00:10:04;;;;;;;;;;;;;;;;;;7389713;19;2096;-49
2022/01/29 00:12:31;;;;;;;;;;;;;;;;;;7394252;19;2131;-43
2022/01/29 00:14:59;;;;;;;;;;;;;;;;;;7389762;19;2187;-46
2022/01/29 00:17:26;;;;;;;;;;;;;;;;;;7390190;19;2306;-43
2022/01/29 00:19:53;;;;;;;;;;;;;;;;;;7388371;19;2280;-44
2022/01/29 00:22:21;;;;;;;;;;;;;;;;;;7389957;19;2297;-48
2022/01/29 00:24:48;;;;;;;;;;;;;;;;;;7389816;19;2028;-43
2022/01/29 00:27:15;;;;;;;;;;;;;;;;;;7389365;19;2171;-44
2022/01/29 00:29:43;;;;;;;;;;;;;;;;;;7389342;19;2265;-46
2022/01/29 00:32:11;;;;;;;;;;;;;;;;;;7388432;19;2207;-46
2022/01/29 00:34:39;;;;;;;;;;;;;;;;;;7388716;19;1996;-47
2022/01/29 00:37:06;;;;;;;;;;;;;;;;;;7388585;19;1999;-46
2022/01/29 00:39:34;;;;;;;;;;;;;;;;;;7388047;19;2307;-43
2022/01/29 00:42:04;;;;;;;;;;;;;;;;;;7388247;19;2302;-43
2022/01/29 00:44:43;;;;;;;;;;;;;;;;;;7389012;19;2217;-44
2022/01/29 00:47:10;;;;;;;;;;;;;;;;;;7388332;19;2271;-43
2022/01/29 00:49:37;;;;;;;;;;;;;;;;;;7388125;19;2164;-43
2022/01/29 00:52:04;;;;;;;;;;;;;;;;;;7389498;19;2389;-42
2022/01/29 00:54:31;;;;;;;;;;;;;;;;;;7391146;19;2391;-44
2022/01/29 00:56:59;;;;;;;;;;;;;;;;;;7395203;19;2306;-44
2022/01/29 00:59:26;;;;;;;;;;;;;;;;;;7395251;19;2294;-42
2022/01/29 01:01:53;;;;;;;;;;;;;;;;;;7395418;19;1489;-49
2022/01/29 01:04:20;;;;;;;;;;;;;;;;;;7395905;19;2112;-46
2022/01/29 01:06:47;;;;;;;;;;;;;;;;;;7395659;19;2400;-49
2022/01/29 01:09:14;;;;;;;;;;;;;;;;;;7395189;19;2159;-44
2022/01/29 01:11:41;;;;;;;;;;;;;;;;;;7398235;19;2149;-43
2022/01/29 01:14:09;;;;;;;;;;;;;;;;;;7395212;19;1737;-44
2022/01/29 01:16:36;;;;;;;;;;;;;;;;;;7394062;19;2346;-46
2022/01/29 01:19:03;;;;;;;;;;;;;;;;;;7395010;19;2373;-45
2022/01/29 01:21:30;;;;;;;;;;;;;;;;;;7393056;19;2085;-47
2022/01/29 01:23:58;;;;;;;;;;;;;;;;;;7396278;19;2390;-45
2022/01/29 01:26:25;;;;;;;;;;;;;;;;;;7394708;19;2200;-47
2022/01/29 01:28:52;;;;;;;;;;;;;;;;;;7394574;19;2218;-44
2022/01/29 01:31:19;;;;;;;;;;;;;;;;;;7395034;19;1660;-45
2022/01/29 01:33:48;;;;;;;;;;;;;;;;;;7395026;19;2181;-46
2022/01/29 01:36:18;;;;;;;;;;;;;;;;;;7394769;19;2326;-43
2022/01/29 01:38:50;;;;;;;;;;;;;;;;;;7394832;19;1748;-46
2022/01/29 01:41:23;;;;;;;;;;;;;;;;;;7392279;19;2170;-44
2022/01/29 01:43:51;;;;;;;;;;;;;;;;;;7392675;19;2488;-45
2022/01/29 01:46:18;;;;;;;;;;;;;;;;;;7394895;19;2308;-49
2022/01/29 01:48:46;;;;;;;;;;;;;;;;;;7394575;19;2292;-45
2022/01/29 01:51:14;;;;;;;;;;;;;;;;;;7393886;19;2229;-43
2022/01/29 01:53:41;;;;;;;;;;;;;;;;;;7394382;19;2344;-45
2022/01/29 01:56:08;;;;;;;;;;;;;;;;;;7394925;19;1773;-48
2022/01/29 01:58:36;;;;;;;;;;;;;;;;;;7394098;19;2178;-45
2022/01/29 02:01:03;;;;;;;;;;;;;;;;;;7392369;19;2345;-46
2022/01/29 02:03:30;;;;;;;;;;;;;;;;;;7393219;19;2042;-45
2022/01/29 02:05:57;;;;;;;;;;;;;;;;;;7391584;19;2336;-44
2022/01/29 02:08:25;;;;;;;;;;;;;;;;;;7393509;19;1713;-45
2022/01/29 02:11:00;;;;;;;;;;;;;;;;;;7396068;19;2373;-44
2022/01/29 02:13:28;;;;;;;;;;;;;;;;;;7393095;19;2405;-44
2022/01/29 02:15:56;;;;;;;;;;;;;;;;;;7393320;19;2299;-46
2022/01/29 02:18:23;;;;;;;;;;;;;;;;;;7393317;19;2452;-43
2022/01/29 02:20:51;;;;;;;;;;;;;;;;;;7391814;19;2246;-46
2022/01/29 02:23:19;;;;;;;;;;;;;;;;;;7393223;19;2274;-48
2022/01/29 02:25:47;;;;;;;;;;;;;;;;;;7390828;19;2101;-46
2022/01/29 02:28:19;;;;;;;;;;;;;;;;;;7393104;19;2282;-45
2022/01/29 02:30:59;;;;;;;;;;;;;;;;;;7392796;19;2267;-47
2022/01/29 02:33:28;;;;;;;;;;;;;;;;;;7393392;19;1781;-45
2022/01/29 02:35:55;;;;;;;;;;;;;;;;;;7392971;19;2320;-45
2022/01/29 02:38:23;;;;;;;;;;;;;;;;;;7392606;19;1724;-44
2022/01/29 02:40:57;;;;;;;;;;;;;;;;;;7391339;19;2294;-44
2022/01/29 02:43:31;;;;;;;;;;;;;;;;;;7391786;19;1403;-47
2022/01/29 02:46:29;;;;;;;;;;;;;;;;;;7392654;19;2199;-46
2022/01/29 02:48:49;;;;;;;;;;;;;;;;;;7391621;19;2116;-46
2022/01/29 02:51:16;;;;;;;;;;;;;;;;;;7392129;19;2257;-46
2022/01/29 02:53:43;;;;;;;;;;;;;;;;;;7392584;19;2650;-44
2022/01/29 02:56:11;;;;;;;;;;;;;;;;;;7391643;19;2205;-44
2022/01/29 02:58:38;;;;;;;;;;;;;;;;;;7390346;19;1783;-44
2022/01/29 03:01:06;;;;;;;;;;;;;;;;;;7392208;19;2258;-44
2022/01/29 03:03:33;;;;;;;;;;;;;;;;;;7392055;19;1931;-44
2022/01/29 03:06:08;;;;;;;;;;;;;;;;;;7391218;19;2189;-43
2022/01/29 03:08:35;;;;;;;;;;;;;;;;;;7390091;19;2008;-46
2022/01/29 03:11:03;;;;;;;;;;;;;;;;;;7393049;19;2156;-44
2022/01/29 03:13:30;;;;;;;;;;;;;;;;;;7391642;19;2392;-45
2022/01/29 03:15:57;;;;;;;;;;;;;;;;;;7391672;19;2187;-47
2022/01/29 03:18:24;;;;;;;;;;;;;;;;;;7391378;19;1614;-43
2022/01/29 03:20:51;;;;;;;;;;;;;;;;;;7390097;19;2014;-50
2022/01/29 03:23:19;;;;;;;;;;;;;;;;;;7390671;19;2506;-45
2022/01/29 03:25:46;;;;;;;;;;;;;;;;;;7389448;19;2066;-46
2022/01/29 03:28:13;;;;;;;;;;;;;;;;;;7391120;19;2277;-46
2022/01/29 03:30:40;;;;;;;;;;;;;;;;;;7390919;19;2361;-48
2022/01/29 03:33:08;;;;;;;;;;;;;;;;;;7390955;19;2279;-51
2022/01/29 03:35:35;;;;;;;;;;;;;;;;;;7390830;19;2078;-44
2022/01/29 03:38:02;;;;;;;;;;;;;;;;;;7390115;19;2270;-45
2022/01/29 03:40:30;;;;;;;;;;;;;;;;;;7390240;19;2293;-45
2022/01/29 03:43:04;;;;;;;;;;;;;;;;;;7390398;19;2527;-46
2022/01/29 03:45:31;;;;;;;;;;;;;;;;;;7390327;19;2214;-43
2022/01/29 03:47:59;;;;;;;;;;;;;;;;;;7390688;19;2319;-46
2022/01/29 03:50:26;;;;;;;;;;;;;;;;;;7390259;19;1704;-43
2022/01/29 03:52:53;;;;;;;;;;;;;;;;;;7390164;19;2050;-44
2022/01/29 03:55:20;;;;;;;;;;;;;;;;;;7389728;19;2442;-44
2022/01/29 03:57:48;;;;;;;;;;;;;;;;;;7390053;19;2316;-46
2022/01/29 04:00:15;;;;;;;;;;;;;;;;;;7390425;19;2017;-44
2022/01/29 04:02:42;;;;;;;;;;;;;;;;;;7390274;19;2202;-44
2022/01/29 04:05:10;;;;;;;;;;;;;;;;;;7390152;19;2002;-44
2022/01/29 04:07:38;;;;;;;;;;;;;;;;;;7389998;19;2293;-44
2022/01/29 04:10:05;;;;;;;;;;;;;;;;;;7390203;19;2185;-44
2022/01/29 04:12:39;;;;;;;;;;;;;;;;;;7394361;19;2431;-44
2022/01/29 04:15:09;;;;;;;;;;;;;;;;;;7390169;19;2153;-47
2022/01/29 04:17:36;;;;;;;;;;;;;;;;;;7389247;19;2078;-43
2022/01/29 04:20:04;;;;;;;;;;;;;;;;;;7389995;19;2480;-43
2022/01/29 04:22:31;;;;;;;;;;;;;;;;;;7387620;19;1838;-45
2022/01/29 04:24:58;;;;;;;;;;;;;;;;;;7389675;19;2328;-43
2022/01/29 04:27:35;;;;;;;;;;;;;;;;;;7392694;19;2194;-47
2022/01/29 04:30:08;;;;;;;;;;;;;;;;;;7394104;19;2309;-45
2022/01/29 04:35:12;;;;;;;;;;;;;;;;;;7397027;19;1810;-44
2022/01/29 04:37:39;;;;;;;;;;;;;;;;;;7396905;19;2398;-45
2022/01/29 04:40:07;;;;;;;;;;;;;;;;;;7396729;19;2302;-47
2022/01/29 04:42:34;;;;;;;;;;;;;;;;;;7393651;19;2304;-47
2022/01/29 04:45:01;;;;;;;;;;;;;;;;;;7396003;19;2200;-45
2022/01/29 04:47:29;;;;;;;;;;;;;;;;;;7396369;19;2401;-48
2022/01/29 04:49:56;;;;;;;;;;;;;;;;;;7395737;19;2284;-45
2022/01/29 04:52:23;;;;;;;;;;;;;;;;;;7396116;19;2064;-44
2022/01/29 04:54:50;;;;;;;;;;;;;;;;;;7395855;19;2361;-43
2022/01/29 04:57:18;;;;;;;;;;;;;;;;;;7395237;19;2273;-47
2022/01/29 04:59:45;;;;;;;;;;;;;;;;;;7396210;19;2393;-45
2022/01/29 05:02:12;;;;;;;;;;;;;;;;;;7393823;19;2205;-43
2022/01/29 05:04:39;;;;;;;;;;;;;;;;;;7395287;19;2342;-44
2022/01/29 05:07:08;;;;;;;;;;;;;;;;;;7395586;19;2371;-44
2022/01/29 05:09:36;;;;;;;;;;;;;;;;;;7395083;19;2227;-46
2022/01/29 05:12:04;;;;;;;;;;;;;;;;;;7399532;19;2168;-44
2022/01/29 05:14:43;;;;;;;;;;;;;;;;;;7395041;19;2326;-48
2022/01/29 05:28:12;;;;;;;;;;;;;;;;;;7394462;19;2226;-45
2022/01/29 05:30:39;;;;;;;;;;;;;;;;;;7395109;19;2227;-45
2022/01/29 05:33:07;;;;;;;;;;;;;;;;;;7395749;19;2178;-45
2022/01/29 05:35:34;;;;;;;;;;;;;;;;;;7395278;19;2365;-44
2022/01/29 05:38:01;;;;;;;;;;;;;;;;;;7394896;19;2375;-43
2022/01/29 05:40:28;;;;;;;;;;;;;;;;;;7391166;19;2247;-47
2022/01/29 05:42:55;;;;;;;;;;;;;;;;;;7391019;19;2372;-47
2022/01/29 05:45:22;;;;;;;;;;;;;;;;;;7393825;19;2357;-49
2022/01/29 05:47:50;;;;;;;;;;;;;;;;;;7395415;19;2177;-46
2022/01/29 05:50:17;;;;;;;;;;;;;;;;;;7394179;19;2289;-44
2022/01/29 05:52:44;;;;;;;;;;;;;;;;;;7394244;19;2219;-46
2022/01/29 05:55:11;;;;;;;;;;;;;;;;;;7394475;19;2277;-46
2022/01/29 05:57:38;;;;;;;;;;;;;;;;;;7394114;19;2093;-46
2022/01/29 06:00:06;;;;;;;;;;;;;;;;;;7394569;19;2097;-45
2022/01/29 06:02:40;;;;;;;;;;;;;;;;;;7392111;19;1997;-45
2022/01/29 06:05:08;;;;;;;;;;;;;;;;;;7394351;19;2365;-45
2022/01/29 06:07:35;;;;;;;;;;;;;;;;;;7393986;19;2147;-47
2022/01/29 06:10:02;;;;;;;;;;;;;;;;;;7393682;19;2230;-47
2022/01/29 06:12:35;;;;;;;;;;;;;;;;;;7398052;19;2326;-45
2022/01/29 06:15:02;;;;;;;;;;;;;;;;;;7394392;19;2349;-45
2022/01/29 06:17:30;;;;;;;;;;;;;;;;;;7393515;19;2018;-47
2022/01/29 06:19:57;;;;;;;;;;;;;;;;;;7393045;19;2480;-51
2022/01/29 06:22:25;;;;;;;;;;;;;;;;;;7391074;19;2325;-46
2022/01/29 06:24:52;;;;;;;;;;;;;;;;;;7391601;19;2462;-47
2022/01/29 06:27:19;;;;;;;;;;;;;;;;;;7392929;19;1996;-48
2022/01/29 06:29:46;;;;;;;;;;;;;;;;;;7392565;19;1994;-48
2022/01/29 06:32:17;;;;;;;;;;;;;;;;;;7392802;19;2289;-46
2022/01/29 06:34:44;;;;;;;;;;;;;;;;;;7392365;19;2220;-45
2022/01/29 06:37:11;;;;;;;;;;;;;;;;;;7392503;19;1927;-46
2022/01/29 06:39:38;;;;;;;;;;;;;;;;;;7395652;19;2175;-47
2022/01/29 06:42:05;;;;;;;;;;;;;;;;;;7392304;19;2310;-47
2022/01/29 06:44:33;;;;;;;;;;;;;;;;;;7391049;19;2493;-43
2022/01/29 06:47:01;;;;;;;;;;;;;;;;;;7391867;19;2262;-43
2022/01/29 06:49:28;;;;;;;;;;;;;;;;;;7391736;19;1752;-43
2022/01/29 06:51:56;;;;;;;;;;;;;;;;;;7391189;19;1698;-51
2022/01/29 06:54:23;;;;;;;;;;;;;;;;;;7392696;19;2293;-51
2022/01/29 06:56:50;;;;;;;;;;;;;;;;;;7392267;19;2236;-45
2022/01/29 06:59:17;;;;;;;;;;;;;;;;;;7392342;19;2188;-47
2022/01/29 07:01:44;;;;;;;;;;;;;;;;;;7391275;19;2185;-44
2022/01/29 07:04:12;;;;;;;;;;;;;;;;;;7390729;19;2149;-44
2022/01/29 07:06:39;;;;;;;;;;;;;;;;;;7391661;19;2260;-45
2022/01/29 07:09:08;;;;;;;;;;;;;;;;;;7392554;19;2189;-44
2022/01/29 07:11:36;;;;;;;;;;;;;;;;;;7390904;19;2080;-49
2022/01/29 07:14:03;;;;;;;;;;;;;;;;;;7390906;19;2632;-43
2022/01/29 07:16:31;;;;;;;;;;;;;;;;;;7391166;19;2130;-46
2022/01/29 07:18:59;;;;;;;;;;;;;;;;;;7391631;19;1960;-43
2022/01/29 07:21:26;;;;;;;;;;;;;;;;;;7390388;19;2286;-45
2022/01/29 07:23:53;;;;;;;;;;;;;;;;;;7391471;19;1970;-44
2022/01/29 07:26:20;;;;;;;;;;;;;;;;;;7390494;19;2291;-50
2022/01/29 07:28:47;;;;;;;;;;;;;;;;;;7389905;19;2355;-41
2022/01/29 07:31:18;;;;;;;;;;;;;;;;;;7390522;19;1900;-43
2022/01/29 07:33:45;;;;;;;;;;;;;;;;;;7390302;19;2301;-46
2022/01/29 07:36:13;;;;;;;;;;;;;;;;;;7390326;19;1870;-45
2022/01/29 07:38:40;;;;;;;;;;;;;;;;;;7390494;19;2209;-47
2022/01/29 07:41:07;;;;;;;;;;;;;;;;;;7390516;19;2215;-44
2022/01/29 07:43:34;;;;;;;;;;;;;;;;;;7389543;19;1392;-44
2022/01/29 07:46:02;;;;;;;;;;;;;;;;;;7390457;19;2552;-49
2022/01/29 07:48:29;;;;;;;;;;;;;;;;;;7390110;19;2246;-41
2022/01/29 07:50:56;;;;;;;;;;;;;;;;;;7390020;19;2366;-44
2022/01/29 07:53:23;;;;;;;;;;;;;;;;;;7389849;19;2092;-47
2022/01/29 07:55:50;;;;;;;;;;;;;;;;;;7390199;19;2078;-41
2022/01/29 07:58:17;;;;;;;;;;;;;;;;;;7389803;19;2372;-44
2022/01/29 08:00:45;;;;;;;;;;;;;;;;;;7389867;19;1690;-43
2022/01/29 08:03:12;;;;;;;;;;;;;;;;;;7387491;19;2251;-45
2022/01/29 08:05:39;;;;;;;;;;;;;;;;;;7388196;19;1640;-42
2022/01/29 08:08:12;;;;;;;;;;;;;;;;;;7389694;19;2289;-46
2022/01/29 08:10:39;;;;;;;;;;;;;;;;;;7389555;19;2243;-42
2022/01/29 08:13:06;;;;;;;;;;;;;;;;;;7393546;19;2296;-44
2022/01/29 08:15:34;;;;;;;;;;;;;;;;;;7390083;19;2213;-41
2022/01/29 08:18:01;;;;;;;;;;;;;;;;;;7389055;19;2277;-43
2022/01/29 08:20:28;;;;;;;;;;;;;;;;;;7389426;19;2341;-43
2022/01/29 08:22:55;;;;;;;;;;;;;;;;;;7388586;19;2156;-43
2022/01/29 08:25:22;;;;;;;;;;;;;;;;;;7388884;19;2150;-47
2022/01/29 08:27:50;;;;;;;;;;;;;;;;;;7388782;19;2215;-44
2022/01/29 08:30:17;;;;;;;;;;;;;;;;;;7388954;19;2213;-43
2022/01/29 08:32:44;;;;;;;;;;;;;;;;;;7388211;19;2156;-51
2022/01/29 08:35:14;;;;;;;;;;;;;;;;;;7387388;19;2404;-47
2022/01/29 08:37:41;;;;;;;;;;;;;;;;;;7389101;19;1923;-42
2022/01/29 08:40:09;;;;;;;;;;;;;;;;;;7388353;19;1733;-41
2022/01/29 08:42:37;;;;;;;;;;;;;;;;;;7387960;19;2267;-45
2022/01/29 08:45:05;;;;;;;;;;;;;;;;;;7393108;19;2084;-45
2022/01/29 08:47:37;;;;;;;;;;;;;;;;;;7388780;19;2325;-54
2022/01/29 08:50:04;;;;;;;;;;;;;;;;;;7388886;19;2280;-50
2022/01/29 08:52:32;;;;;;;;;;;;;;;;;;7388580;19;2228;-50
2022/01/29 08:54:59;;;;;;;;;;;;;;;;;;7388600;19;2003;-44
2022/01/29 08:57:26;;;;;;;;;;;;;;;;;;7388823;19;2203;-41
2022/01/29 08:59:53;;;;;;;;;;;;;;;;;;7389663;19;2166;-41
2022/01/29 09:02:20;;;;;;;;;;;;;;;;;;7388055;19;2338;-48
2022/01/29 09:04:52;;;;;;;;;;;;;;;;;;7387804;19;1721;-41
2022/01/29 09:07:20;;;;;;;;;;;;;;;;;;7388344;19;2349;-45
2022/01/29 09:09:47;;;;;;;;;;;;;;;;;;7387703;19;2183;-43
2022/01/29 09:12:14;;;;;;;;;;;;;;;;;;7391118;19;2315;-43
2022/01/29 09:14:42;;;;;;;;;;;;;;;;;;7388091;19;2232;-41
2022/01/29 09:17:09;;;;;;;;;;;;;;;;;;7394801;19;1935;-41
2022/01/29 09:19:38;;;;;;;;;;;;;;;;;;7395117;19;2157;-42
2022/01/29 09:22:05;;;;;;;;;;;;;;;;;;7395534;19;2099;-50
2022/01/29 09:24:33;;;;;;;;;;;;;;;;;;7394022;19;3555;-49
2022/01/29 09:27:00;;;;;;;;;;;;;;;;;;7394758;19;2269;-47
2022/01/29 09:29:27;;;;;;;;;;;;;;;;;;7395738;19;2267;-47
2022/01/29 09:31:54;;;;;;;;;;;;;;;;;;7394487;19;2251;-46
2022/01/29 09:34:21;;;;;;;;;;;;;;;;;;7395685;19;2003;-42
2022/01/29 09:36:49;;;;;;;;;;;;;;;;;;7394061;19;2253;-49
2022/01/29 09:39:16;;;;;;;;;;;;;;;;;;7394883;19;2278;-41
2022/01/29 09:41:44;;;;;;;;;;;;;;;;;;7393600;19;2177;-45
2022/01/29 09:44:12;;;;;;;;;;;;;;;;;;7392542;19;2363;-41
2022/01/29 09:46:41;;;;;;;;;;;;;;;;;;7394285;19;2251;-42
2022/01/29 09:49:09;;;;;;;;;;;;;;;;;;7395054;19;2388;-43
2022/01/29 09:51:38;;;;;;;;;;;;;;;;;;7394760;19;2374;-43
2022/01/29 09:54:05;;;;;;;;;;;;;;;;;;7394688;19;2297;-46
2022/01/29 09:56:33;;;;;;;;;;;;;;;;;;7393654;19;2425;-45
2022/01/29 09:59:01;;;;;;;;;;;;;;;;;;7393629;19;1964;-48
2022/01/29 10:01:28;;;;;;;;;;;;;;;;;;7394172;19;1882;-44
2022/01/29 10:04:03;;;;;;;;;;;;;;;;;;7391448;19;2262;-47
2022/01/29 10:06:31;;;;;;;;;;;;;;;;;;7393564;19;2286;-44
2022/01/29 10:09:01;;;;;;;;;;;;;;;;;;7393058;19;2293;-45
2022/01/29 10:11:30;;;;;;;;;;;;;;;;;;7395731;19;2224;-46
2022/01/29 10:13:58;;;;;;;;;;;;;;;;;;7393862;19;2164;-45
2022/01/29 10:16:28;;;;;;;;;;;;;;;;;;7393214;19;2226;-44
2022/01/29 10:19:03;;;;;;;;;;;;;;;;;;7393322;19;2403;-49
2022/01/29 10:21:48;;;;;;;;;;;;;;;;;;7393395;19;2408;-50
2022/01/29 10:24:17;;;;;;;;;;;;;;;;;;7393196;19;2164;-45
2022/01/29 10:26:46;;;;;;;;;;;;;;;;;;7391664;19;2386;-47
2022/01/29 10:29:21;;;;;;;;;;;;;;;;;;7393343;19;2323;-44
2022/01/29 10:31:49;;;;;;;;;;;;;;;;;;7392817;19;2370;-44
2022/01/29 10:34:19;;;;;;;;;;;;;;;;;;7393183;19;2368;-43
2022/01/29 10:37:06;;;;;;;;;;;;;;;;;;7393212;19;2224;-45
2022/01/29 10:39:34;;;;;;;;;;;;;;;;;;7393189;19;1922;-47
2022/01/29 10:42:20;;;;;;;;;;;;;;;;;;7392297;19;1842;-49
2022/01/29 10:44:51;;;;;;;;;;;;;;;;;;7392632;19;2285;-44
2022/01/29 10:47:19;;;;;;;;;;;;;;;;;;7392292;19;2403;-42
2022/01/29 10:49:50;;;;;;;;;;;;;;;;;;7392676;19;1662;-45
2022/01/29 10:52:24;;;;;;;;;;;;;;;;;;7391971;19;2305;-42
2022/01/29 10:54:59;;;;;;;;;;;;;;;;;;7391625;19;2630;-51
2022/01/29 10:57:30;;;;;;;;;;;;;;;;;;7391645;19;2155;-50
2022/01/29 10:59:58;;;;;;;;;;;;;;;;;;7392087;19;2277;-46
2022/01/29 11:02:28;;;;;;;;;;;;;;;;;;7391021;19;2123;-46
2022/01/29 11:04:56;;;;;;;;;;;;;;;;;;7391899;19;2296;-48
2022/01/29 11:07:28;;;;;;;;;;;;;;;;;;7391528;19;1966;-47
2022/01/29 11:09:59;;;;;;;;;;;;;;;;;;7391447;19;2176;-43
2022/01/29 11:12:30;;;;;;;;;;;;;;;;;;7396019;19;2471;-48
2022/01/29 11:14:59;;;;;;;;;;;;;;;;;;7391949;19;2349;-46
2022/01/29 11:17:27;;;;;;;;;;;;;;;;;;7391566;19;2268;-45
2022/01/29 11:19:54;;;;;;;;;;;;;;;;;;7394597;19;2285;-44
2022/01/29 11:22:26;;;;;;;;;;;;;;;;;;7390600;19;1906;-44
2022/01/29 11:24:58;;;;;;;;;;;;;;;;;;7391397;19;2365;-51
2022/01/29 11:27:27;;;;;;;;;;;;;;;;;;7391069;19;2017;-53
2022/01/29 11:30:02;;;;;;;;;;;;;;;;;;7390681;19;2115;-47
2022/01/29 11:32:34;;;;;;;;;;;;;;;;;;7391342;19;2222;-43
2022/01/29 11:35:16;;;;;;;;;;;;;;;;;;7390740;19;2360;-50
2022/01/29 11:37:50;;;;;;;;;;;;;;;;;;7390652;19;2075;-47
2022/01/29 11:40:33;;;;;;;;;;;;;;;;;;7387934;19;2313;-42
2022/01/29 11:43:01;;;;;;;;;;;;;;;;;;7389374;19;2246;-42
2022/01/29 11:45:36;;;;;;;;;;;;;;;;;;7390429;19;2345;-45
2022/01/29 11:48:04;;;;;;;;;;;;;;;;;;7390747;19;2160;-49
2022/01/29 11:50:32;;;;;;;;;;;;;;;;;;7390513;19;2412;-41
2022/01/29 11:53:00;;;;;;;;;;;;;;;;;;7390105;19;2258;-47
2022/01/29 11:55:47;;;;;;;;;;;;;;;;;;7390096;19;2295;-45
2022/01/29 11:58:28;;;;;;;;;;;;;;;;;;7390123;19;2298;-45
2022/01/29 12:00:56;;;;;;;;;;;;;;;;;;7389415;19;2174;-60
2022/01/29 12:03:33;;;;;;;;;;;;;;;;;;7388526;19;2175;-42
2022/01/29 12:06:20;;;;;;;;;;;;;;;;;;7389019;19;2255;-46
2022/01/29 12:09:09;;;;;;;;;;;;;;;;;;7389588;19;1489;-44
2022/01/29 12:11:41;;;;;;;;;;;;;;;;;;7393091;19;2026;-52
2022/01/29 12:14:12;;;;;;;;;;;;;;;;;;7390035;19;2268;-42
2022/01/29 12:16:45;;;;;;;;;;;;;;;;;;7388240;19;1924;-43
2022/01/29 12:19:31;;;;;;;;;;;;;;;;;;7384877;19;1836;-42
2022/01/29 12:21:59;;;;;;;;;;;;;;;;;;7384436;19;2243;-43
2022/01/29 12:24:26;;;;;;;;;;;;;;;;;;7383212;19;2220;-43
2022/01/29 12:26:55;;;;;;;;;;;;;;;;;;7384273;19;1967;-42
2022/01/29 12:29:22;;;;;;;;;;;;;;;;;;7384600;19;2273;-42
2022/01/29 12:31:50;;;;;;;;;;;;;;;;;;7384701;19;2195;-46
2022/01/29 12:34:18;;;;;;;;;;;;;;;;;;7388471;19;2172;-42
2022/01/29 12:36:45;;;;;;;;;;;;;;;;;;7389077;19;2223;-42
2022/01/29 12:39:20;;;;;;;;;;;;;;;;;;7389310;19;1859;-45
2022/01/29 12:44:40;;;;;;;;;;;;;;;;;;7387448;19;2231;-43
2022/01/29 12:47:08;;;;;;;;;;;;;;;;;;7389064;19;2212;-43
2022/01/29 12:49:39;;;;;;;;;;;;;;;;;;7388614;19;2057;-42
2022/01/29 12:52:08;;;;;;;;;;;;;;;;;;7395925;19;2281;-42
2022/01/29 12:54:35;;;;;;;;;;;;;;;;;;7396473;19;2129;-43
2022/01/29 12:57:04;;;;;;;;;;;;;;;;;;7396154;19;2319;-46
2022/01/29 12:59:34;;;;;;;;;;;;;;;;;;7395709;19;2333;-43
2022/01/29 13:02:04;;;;;;;;;;;;;;;;;;7396298;19;1944;-41
2022/01/29 13:04:32;;;;;;;;;;;;;;;;;;7393124;19;1916;-44
2022/01/29 13:07:03;;;;;;;;;;;;;;;;;;7395322;19;2279;-48
2022/01/29 13:09:36;;;;;;;;;;;;;;;;;;7395674;19;1868;-41
2022/01/29 13:12:03;;;;;;;;;;;;;;;;;;7398461;19;1975;-41
2022/01/29 13:14:31;;;;;;;;;;;;;;;;;;7395044;19;2406;-48
2022/01/29 13:17:00;;;;;;;;;;;;;;;;;;7395109;19;2140;-44
2022/01/29 13:19:28;;;;;;;;;;;;;;;;;;7395266;19;1934;-42
2022/01/29 13:21:59;;;;;;;;;;;;;;;;;;7395513;19;1899;-45
2022/01/29 13:24:27;;;;;;;;;;;;;;;;;;7393689;19;2387;-43
2022/01/29 13:27:06;;;;;;;;;;;;;;;;;;7394721;19;2347;-43
2022/01/29 13:29:34;;;;;;;;;;;;;;;;;;7395230;19;2347;-48
2022/01/29 13:32:05;;;;;;;;;;;;;;;;;;7395231;19;2130;-41
2022/01/29 13:34:34;;;;;;;;;;;;;;;;;;7394735;19;2029;-45
2022/01/29 13:37:24;;;;;;;;;;;;;;;;;;7394814;19;2803;-47
2022/01/29 13:39:51;;;;;;;;;;;;;;;;;;7394666;19;2277;-47
2022/01/29 13:42:20;;;;;;;;;;;;;;;;;;7394093;19;2116;-50
2022/01/29 13:45:06;;;;;;;;;;;;;;;;;;7392335;19;2175;-43
2022/01/29 13:47:35;;;;;;;;;;;;;;;;;;7394599;19;2275;-46
2022/01/29 13:50:35;;;;;;;;;;;;;;;;;;7394837;19;2279;-48
2022/01/29 13:53:23;;;;;;;;;;;;;;;;;;7391460;19;2105;-47
2022/01/29 13:55:55;;;;;;;;;;;;;;;;;;7394360;19;2308;-42
2022/01/29 13:58:23;;;;;;;;;;;;;;;;;;7394306;19;2207;-47
2022/01/29 14:00:59;;;;;;;;;;;;;;;;;;7393262;19;2085;-50
2022/01/29 14:03:46;;;;;;;;;;;;;;;;;;7391571;19;2241;-41
2022/01/29 14:06:31;;;;;;;;;;;;;;;;;;7391799;19;2310;-42
2022/01/29 14:09:27;;;;;;;;;;;;;;;;;;7393533;19;2000;-43
2022/01/29 14:12:08;;;;;;;;;;;;;;;;;;7396064;19;1920;-45
2022/01/29 14:14:37;;;;;;;;;;;;;;;;;;7393640;19;2186;-47
2022/01/29 14:17:06;;;;;;;;;;;;;;;;;;7392975;19;2372;-47
2022/01/29 14:19:33;;;;;;;;;;;;;;;;;;7392913;19;2266;-42
2022/01/29 14:22:01;;;;;;;;;;;;;;;;;;7393574;19;2293;-44
2022/01/29 14:24:28;;;;;;;;;;;;;;;;;;7390898;19;2303;-42
2022/01/29 14:26:56;;;;;;;;;;;;;;;;;;7393131;19;2303;-44
2022/01/29 14:29:24;;;;;;;;;;;;;;;;;;7392937;19;2221;-61
2022/01/29 14:32:08;;;;;;;;;;;;;;;;;;7393352;19;2223;-53
2022/01/29 14:34:35;;;;;;;;;;;;;;;;;;7392804;19;2125;-41
2022/01/29 14:37:03;;;;;;;;;;;;;;;;;;7392524;19;1938;-46
2022/01/29 14:39:31;;;;;;;;;;;;;;;;;;7391906;19;2317;-45
2022/01/29 14:42:03;;;;;;;;;;;;;;;;;;7393114;19;2111;-50
2022/01/29 14:44:31;;;;;;;;;;;;;;;;;;7389670;19;2310;-43
2022/01/29 14:46:58;;;;;;;;;;;;;;;;;;7392425;19;2275;-42
2022/01/29 14:49:26;;;;;;;;;;;;;;;;;;7392383;19;2649;-44
2022/01/29 14:51:54;;;;;;;;;;;;;;;;;;7391876;19;2005;-44
2022/01/29 14:54:22;;;;;;;;;;;;;;;;;;7392366;19;2435;-46
2022/01/29 14:56:49;;;;;;;;;;;;;;;;;;7392067;19;2184;-45
2022/01/29 14:59:16;;;;;;;;;;;;;;;;;;7392080;19;2271;-41
2022/01/29 15:01:43;;;;;;;;;;;;;;;;;;7391942;19;2214;-44
2022/01/29 15:04:11;;;;;;;;;;;;;;;;;;7390879;19;2338;-44
2022/01/29 15:06:39;;;;;;;;;;;;;;;;;;7392175;19;2421;-45
2022/01/29 15:09:06;;;;;;;;;;;;;;;;;;7392571;19;1990;-46
2022/01/29 15:11:35;;;;;;;;;;;;;;;;;;7394148;19;2263;-42
2022/01/29 15:14:05;;;;;;;;;;;;;;;;;;7388825;19;1970;-47
2022/01/29 15:16:33;;;;;;;;;;;;;;;;;;7391350;19;2292;-42
2022/01/29 15:19:02;;;;;;;;;;;;;;;;;;7391111;19;2361;-44
2022/01/29 15:21:30;;;;;;;;;;;;;;;;;;7390675;19;2084;-42
2022/01/29 15:23:57;;;;;;;;;;;;;;;;;;7390354;19;1957;-43
2022/01/29 15:26:24;;;;;;;;;;;;;;;;;;7390939;19;2310;-45
2022/01/29 15:28:52;;;;;;;;;;;;;;;;;;7390275;19;2024;-46
2022/01/29 15:31:19;;;;;;;;;;;;;;;;;;7391236;19;2068;-46
2022/01/29 15:33:46;;;;;;;;;;;;;;;;;;7390525;19;1933;-45
2022/01/29 15:36:13;;;;;;;;;;;;;;;;;;7391086;19;1953;-46
2022/01/29 15:38:40;;;;;;;;;;;;;;;;;;7390670;19;2293;-50
2022/01/29 15:41:08;;;;;;;;;;;;;;;;;;7394103;19;2301;-47
2022/01/29 15:43:36;;;;;;;;;;;;;;;;;;7388014;19;1845;-44
2022/01/29 15:46:04;;;;;;;;;;;;;;;;;;7388850;19;2275;-42
2022/01/29 15:48:35;;;;;;;;;;;;;;;;;;7393860;19;2299;-42
2022/01/29 15:51:06;;;;;;;;;;;;;;;;;;7388423;19;2298;-43
2022/01/29 15:53:34;;;;;;;;;;;;;;;;;;7390558;19;2227;-42
2022/01/29 15:56:02;;;;;;;;;;;;;;;;;;7390006;19;2172;-48
2022/01/29 15:58:29;;;;;;;;;;;;;;;;;;7390092;19;2250;-42
2022/01/29 16:00:59;;;;;;;;;;;;;;;;;;7389818;19;2054;-42
2022/01/29 16:03:27;;;;;;;;;;;;;;;;;;7389482;19;2341;-44
2022/01/29 16:05:55;;;;;;;;;;;;;;;;;;7389718;19;2409;-44
2022/01/29 16:08:23;;;;;;;;;;;;;;;;;;7389973;19;2278;-44
2022/01/29 16:10:51;;;;;;;;;;;;;;;;;;7391277;19;2274;-42
2022/01/29 16:13:19;;;;;;;;;;;;;;;;;;7389334;19;1972;-42
2022/01/29 16:15:48;;;;;;;;;;;;;;;;;;7389579;19;2192;-47
2022/01/29 16:18:17;;;;;;;;;;;;;;;;;;7388640;19;2170;-41
2022/01/29 16:20:44;;;;;;;;;;;;;;;;;;7389352;19;2299;-42
2022/01/29 16:23:12;;;;;;;;;;;;;;;;;;7389425;19;2367;-41
2022/01/29 16:25:41;;;;;;;;;;;;;;;;;;7390583;19;2307;-43
2022/01/29 16:28:11;;;;;;;;;;;;;;;;;;7397548;19;2362;-46
2022/01/29 16:30:43;;;;;;;;;;;;;;;;;;7397218;19;1389;-42
2022/01/29 16:33:11;;;;;;;;;;;;;;;;;;7397563;19;2081;-46
2022/01/29 16:35:38;;;;;;;;;;;;;;;;;;7396893;19;2044;-42
2022/01/29 16:38:25;;;;;;;;;;;;;;;;;;7396813;19;2003;-43
2022/01/29 16:40:52;;;;;;;;;;;;;;;;;;7396075;19;2300;-43
2022/01/29 16:43:20;;;;;;;;;;;;;;;;;;7394836;19;2257;-48
2022/01/29 16:45:47;;;;;;;;;;;;;;;;;;7393578;19;2275;-44
2022/01/29 16:48:17;;;;;;;;;;;;;;;;;;7396506;19;2202;-42
2022/01/29 16:50:46;;;;;;;;;;;;;;;;;;7395767;19;1903;-43
2022/01/29 16:53:14;;;;;;;;;;;;;;;;;;7396768;19;2394;-42
2022/01/29 16:55:41;;;;;;;;;;;;;;;;;;7395823;19;1953;-43
2022/01/29 16:58:09;;;;;;;;;;;;;;;;;;7396529;19;2308;-46
2022/01/29 17:00:36;;;;;;;;;;;;;;;;;;7396970;19;2112;-42
2022/01/29 17:03:03;;;;;;;;;;;;;;;;;;7395413;19;2193;-42
2022/01/29 17:05:30;;;;;;;;;;;;;;;;;;7393208;19;2035;-46
2022/01/29 17:07:58;;;;;;;;;;;;;;;;;;7395899;19;2208;-60
2022/01/29 17:10:25;;;;;;;;;;;;;;;;;;7395348;19;1633;-48
2022/01/29 17:12:53;;;;;;;;;;;;;;;;;;7395712;19;2299;-45
2022/01/29 17:15:20;;;;;;;;;;;;;;;;;;7395530;19;2280;-52
2022/01/29 17:17:47;;;;;;;;;;;;;;;;;;7395491;19;2391;-51
2022/01/29 17:20:14;;;;;;;;;;;;;;;;;;7395219;19;2246;-53
2022/01/29 17:22:45;;;;;;;;;;;;;;;;;;7394590;19;2320;-51
2022/01/29 17:25:12;;;;;;;;;;;;;;;;;;7393443;19;2326;-48
2022/01/29 17:27:40;;;;;;;;;;;;;;;;;;7395302;19;1923;-45
2022/01/29 17:30:10;;;;;;;;;;;;;;;;;;7395218;19;2371;-48
2022/01/29 17:32:38;;;;;;;;;;;;;;;;;;7395641;19;2011;-49